This is the latest recevied weather packets stored in our database for station/object N1YZ. If no packets are shown the sender has not sent any weather packets the latest 10 day(s).
| Time | Temp. | Humidity | Pressure | Rain* | Wind** | Luminosity | Snow |
|---|---|---|---|---|---|---|---|
| 1777492269 | 26.67° C | 79% | 1031.2 hPa | 0 mm | - | 287 W/m² | - |
| 1777491967 | 26.11° C | 84% | 1031.5 hPa | 0 mm | - | 160 W/m² | - |
| 1777491662 | 26.11° C | 83% | 1031.4 hPa | 0 mm | - | 204 W/m² | - |
| 1777491361 | 26.11° C | 82% | 1031.2 hPa | 0 mm | - | 171 W/m² | - |
| 1777491057 | 26.11° C | 84% | 1031.4 hPa | 0 mm | - | 191 W/m² | - |
| 1777490752 | 25.56° C | 83% | 1031.7 hPa | 0 mm | - | 274 W/m² | - |
| 1777490449 | 25° C | 85% | 1031.6 hPa | 0 mm | - | 184 W/m² | - |
| 1777490145 | 25° C | 85% | 1032 hPa | 0 mm | - | 174 W/m² | - |
| 1777489843 | 25.56° C | 84% | 1032 hPa | 0 mm | - | 196 W/m² | - |
| 1777489540 | 26.11° C | 83% | 1032 hPa | 0 mm | - | 174 W/m² | - |
| 1777489237 | 25.56° C | 87% | 1032.1 hPa | 0 mm | - | 145 W/m² | - |
| 1777488934 | 25.56° C | 85% | 1032.2 hPa | 0 mm | - | 514 W/m² | - |
| 1777488631 | 25.56° C | 84% | 1032.5 hPa | 0 mm | - | 231 W/m² | - |
| 1777488329 | 25° C | 88% | 1032.5 hPa | 0 mm | - | 634 W/m² | - |
| 1777488027 | 24.44° C | 87% | 1032.6 hPa | 0 mm | - | 729 W/m² | - |
| 1777487724 | 25° C | 87% | 1032.7 hPa | 0 mm | - | 128 W/m² | - |
| 1777487422 | 25° C | 87% | 1032.6 hPa | 0 mm | - | 140 W/m² | - |
| 1777487119 | 25° C | 88% | 1032.5 hPa | 0 mm | - | 348 W/m² | - |
| 1777486815 | 25° C | 87% | 1032.7 hPa | 0 mm | - | 241 W/m² | - |
| 1777486512 | 24.44° C | 88% | 1032.6 hPa | 0 mm | - | 602 W/m² | - |
| 1777486210 | 23.89° C | 91% | 1032.9 hPa | 0 mm | - | 285 W/m² | - |
| 1777485908 | 22.78° C | 93% | 1033.1 hPa | 0 mm | - | 361 W/m² | - |
| 1777485603 | 22.78° C | 96% | 1033.3 hPa | 0 mm | - | 391 W/m² | - |
| 1777485298 | 22.78° C | 96% | 1033.4 hPa | 0 mm | - | 136 W/m² | - |
| 1777484995 | 22.22° C | 97% | 1033.2 hPa | 0 mm | - | 96 W/m² | - |
* Rain latest hour (hover to see other rain measurements)
** Current wind speed in m/s (hover to see current wind gust speed)